sensor_id;sensor_type;location;lat;lon;timestamp;temperature;humidity
20504;DHT22;10410;51.046;6.980;2022-12-10T00:06:44;-0.40;99.90
20504;DHT22;10410;51.046;6.980;2022-12-10T00:13:45;-0.50;99.90
20504;DHT22;10410;51.046;6.980;2022-12-10T00:20:46;-0.60;99.90
20504;DHT22;10410;51.046;6.980;2022-12-10T00:27:46;-0.70;99.90
20504;DHT22;10410;51.046;6.980;2022-12-10T00:34:48;-0.80;99.90
20504;DHT22;10410;51.046;6.980;2022-12-10T00:41:49;-0.80;99.90
20504;DHT22;10410;51.046;6.980;2022-12-10T00:48:49;-0.90;99.90
20504;DHT22;10410;51.046;6.980;2022-12-10T00:55:51;-1.00;99.90
20504;DHT22;10410;51.046;6.980;2022-12-10T01:02:53;-1.10;99.90
20504;DHT22;10410;51.046;6.980;2022-12-10T01:09:53;-1.10;99.90
20504;DHT22;10410;51.046;6.980;2022-12-10T01:16:56;-1.20;99.90
20504;DHT22;10410;51.046;6.980;2022-12-10T01:23:58;-1.20;99.90
20504;DHT22;10410;51.046;6.980;2022-12-10T01:31:04;-1.30;99.90
20504;DHT22;10410;51.046;6.980;2022-12-10T01:38:05;-1.40;99.90
20504;DHT22;10410;51.046;6.980;2022-12-10T01:45:08;-1.40;99.90
20504;DHT22;10410;51.046;6.980;2022-12-10T01:52:10;-1.50;99.90
20504;DHT22;10410;51.046;6.980;2022-12-10T01:59:12;-1.60;99.90
20504;DHT22;10410;51.046;6.980;2022-12-10T02:06:30;-1.60;99.90
20504;DHT22;10410;51.046;6.980;2022-12-10T02:13:41;-1.70;99.90
20504;DHT22;10410;51.046;6.980;2022-12-10T02:20:46;-1.80;99.90
20504;DHT22;10410;51.046;6.980;2022-12-10T02:28:01;-1.80;99.90
20504;DHT22;10410;51.046;6.980;2022-12-10T02:35:07;-2.00;99.90
20504;DHT22;10410;51.046;6.980;2022-12-10T02:42:11;-2.20;99.90
20504;DHT22;10410;51.046;6.980;2022-12-10T02:49:16;-2.20;99.90
20504;DHT22;10410;51.046;6.980;2022-12-10T02:56:30;-2.20;99.90
20504;DHT22;10410;51.046;6.980;2022-12-10T03:03:41;-2.30;99.90
20504;DHT22;10410;51.046;6.980;2022-12-10T03:17:59;-2.40;99.90
20504;DHT22;10410;51.046;6.980;2022-12-10T03:25:01;-2.40;99.90
20504;DHT22;10410;51.046;6.980;2022-12-10T03:32:02;-2.30;99.90
20504;DHT22;10410;51.046;6.980;2022-12-10T03:39:03;-2.30;99.90
20504;DHT22;10410;51.046;6.980;2022-12-10T03:46:04;-2.30;99.90
20504;DHT22;10410;51.046;6.980;2022-12-10T03:53:05;-2.20;99.90
20504;DHT22;10410;51.046;6.980;2022-12-10T04:00:06;-2.00;99.90
20504;DHT22;10410;51.046;6.980;2022-12-10T04:07:13;-1.90;99.90
20504;DHT22;10410;51.046;6.980;2022-12-10T04:14:14;-1.90;99.90
20504;DHT22;10410;51.046;6.980;2022-12-10T04:21:34;-1.80;99.90
20504;DHT22;10410;51.046;6.980;2022-12-10T04:28:54;-1.70;99.90
20504;DHT22;10410;51.046;6.980;2022-12-10T04:35:54;-1.60;99.90
20504;DHT22;10410;51.046;6.980;2022-12-10T04:42:55;-1.50;99.90
20504;DHT22;10410;51.046;6.980;2022-12-10T04:49:55;-1.40;99.90
20504;DHT22;10410;51.046;6.980;2022-12-10T04:56:55;-1.40;99.90
20504;DHT22;10410;51.046;6.980;2022-12-10T05:03:59;-1.30;99.90
20504;DHT22;10410;51.046;6.980;2022-12-10T05:11:05;-1.30;99.90
20504;DHT22;10410;51.046;6.980;2022-12-10T05:18:05;-1.20;99.90
20504;DHT22;10410;51.046;6.980;2022-12-10T05:25:06;-1.20;99.90
20504;DHT22;10410;51.046;6.980;2022-12-10T05:32:06;-1.10;99.90
20504;DHT22;10410;51.046;6.980;2022-12-10T05:39:07;-1.10;99.90
20504;DHT22;10410;51.046;6.980;2022-12-10T05:46:15;-1.00;99.90
20504;DHT22;10410;51.046;6.980;2022-12-10T06:02:03;-1.00;99.90
20504;DHT22;10410;51.046;6.980;2022-12-10T06:09:05;-0.90;99.90
20504;DHT22;10410;51.046;6.980;2022-12-10T06:16:09;-0.90;99.90
20504;DHT22;10410;51.046;6.980;2022-12-10T06:23:09;-0.80;99.90
20504;DHT22;10410;51.046;6.980;2022-12-10T06:30:10;-0.80;99.90
20504;DHT22;10410;51.046;6.980;2022-12-10T06:37:10;-0.70;99.90
20504;DHT22;10410;51.046;6.980;2022-12-10T06:44:11;-0.70;99.90
20504;DHT22;10410;51.046;6.980;2022-12-10T06:51:12;-0.60;99.90
20504;DHT22;10410;51.046;6.980;2022-12-10T06:58:13;-0.60;99.90
20504;DHT22;10410;51.046;6.980;2022-12-10T07:05:14;-0.40;99.90
20504;DHT22;10410;51.046;6.980;2022-12-10T07:12:14;-0.50;99.90
20504;DHT22;10410;51.046;6.980;2022-12-10T07:19:14;-0.50;99.90
20504;DHT22;10410;51.046;6.980;2022-12-10T07:26:15;-0.50;99.90
20504;DHT22;10410;51.046;6.980;2022-12-10T07:33:15;-0.50;99.90
20504;DHT22;10410;51.046;6.980;2022-12-10T07:40:17;-0.40;99.90
20504;DHT22;10410;51.046;6.980;2022-12-10T07:47:17;-0.40;99.90
20504;DHT22;10410;51.046;6.980;2022-12-10T07:54:18;-0.40;99.90
20504;DHT22;10410;51.046;6.980;2022-12-10T08:01:22;-0.40;99.90
20504;DHT22;10410;51.046;6.980;2022-12-10T08:08:23;-0.30;99.90
20504;DHT22;10410;51.046;6.980;2022-12-10T08:15:23;-0.30;99.90
20504;DHT22;10410;51.046;6.980;2022-12-10T08:22:24;-0.20;99.90
20504;DHT22;10410;51.046;6.980;2022-12-10T08:29:24;-0.20;99.90
20504;DHT22;10410;51.046;6.980;2022-12-10T08:36:24;-0.10;99.90
20504;DHT22;10410;51.046;6.980;2022-12-10T08:43:25;-0.10;99.90
20504;DHT22;10410;51.046;6.980;2022-12-10T08:50:25;-0.10;99.90
20504;DHT22;10410;51.046;6.980;2022-12-10T08:57:25;-0.20;99.90
20504;DHT22;10410;51.046;6.980;2022-12-10T09:04:26;-0.20;99.90
20504;DHT22;10410;51.046;6.980;2022-12-10T09:11:29;-0.30;99.90
20504;DHT22;10410;51.046;6.980;2022-12-10T09:18:29;-0.30;99.90
20504;DHT22;10410;51.046;6.980;2022-12-10T09:25:30;-0.30;99.90
20504;DHT22;10410;51.046;6.980;2022-12-10T09:32:30;-0.20;99.90
20504;DHT22;10410;51.046;6.980;2022-12-10T09:39:31;-0.20;99.90
20504;DHT22;10410;51.046;6.980;2022-12-10T09:46:54;-0.10;99.90
20504;DHT22;10410;51.046;6.980;2022-12-10T09:53:57;-0.20;99.90
20504;DHT22;10410;51.046;6.980;2022-12-10T10:01:05;-0.30;99.90
20504;DHT22;10410;51.046;6.980;2022-12-10T10:08:13;-0.30;99.90
20504;DHT22;10410;51.046;6.980;2022-12-10T10:15:18;-0.30;99.90
20504;DHT22;10410;51.046;6.980;2022-12-10T10:22:20;-0.10;99.90
20504;DHT22;10410;51.046;6.980;2022-12-10T10:29:21;-0.10;99.90
20504;DHT22;10410;51.046;6.980;2022-12-10T10:36:23;-0.10;99.90
20504;DHT22;10410;51.046;6.980;2022-12-10T10:43:25;-0.10;99.90
20504;DHT22;10410;51.046;6.980;2022-12-10T10:50:26;0.00;99.90
20504;DHT22;10410;51.046;6.980;2022-12-10T10:57:37;0.00;99.90
20504;DHT22;10410;51.046;6.980;2022-12-10T11:04:51;0.10;99.90
20504;DHT22;10410;51.046;6.980;2022-12-10T11:11:57;0.10;99.90
20504;DHT22;10410;51.046;6.980;2022-12-10T11:19:00;0.20;99.90
20504;DHT22;10410;51.046;6.980;2022-12-10T11:34:03;0.30;99.90
20504;DHT22;10410;51.046;6.980;2022-12-10T12:18:04;0.70;99.90
20504;DHT22;10410;51.046;6.980;2022-12-10T12:25:20;0.80;99.90
20504;DHT22;10410;51.046;6.980;2022-12-10T12:32:35;0.80;99.90
20504;DHT22;10410;51.046;6.980;2022-12-10T12:39:59;0.80;99.90
20504;DHT22;10410;51.046;6.980;2022-12-10T12:47:32;0.70;99.90
20504;DHT22;10410;51.046;6.980;2022-12-10T12:54:36;0.80;99.90
20504;DHT22;10410;51.046;6.980;2022-12-10T13:01:56;0.80;99.90
20504;DHT22;10410;51.046;6.980;2022-12-10T13:09:26;0.80;99.90
20504;DHT22;10410;51.046;6.980;2022-12-10T13:23:53;0.90;99.90
20504;DHT22;10410;51.046;6.980;2022-12-10T13:38:20;1.00;99.90
20504;DHT22;10410;51.046;6.980;2022-12-10T14:07:12;1.10;99.90
20504;DHT22;10410;51.046;6.980;2022-12-10T14:14:22;1.10;99.90
20504;DHT22;10410;51.046;6.980;2022-12-10T14:21:23;1.20;99.90
20504;DHT22;10410;51.046;6.980;2022-12-10T14:28:24;1.30;99.90
20504;DHT22;10410;51.046;6.980;2022-12-10T14:35:27;1.20;99.90
20504;DHT22;10410;51.046;6.980;2022-12-10T14:42:28;1.30;99.90
20504;DHT22;10410;51.046;6.980;2022-12-10T14:49:28;1.30;99.90
20504;DHT22;10410;51.046;6.980;2022-12-10T14:56:36;1.30;99.90
20504;DHT22;10410;51.046;6.980;2022-12-10T15:03:49;1.30;99.90
20504;DHT22;10410;51.046;6.980;2022-12-10T15:10:54;1.30;99.90
20504;DHT22;10410;51.046;6.980;2022-12-10T15:18:09;1.30;99.90
20504;DHT22;10410;51.046;6.980;2022-12-10T15:25:28;1.20;99.90
20504;DHT22;10410;51.046;6.980;2022-12-10T15:32:29;1.20;99.90
20504;DHT22;10410;51.046;6.980;2022-12-10T15:39:33;1.20;99.90
20504;DHT22;10410;51.046;6.980;2022-12-10T15:46:47;1.20;99.90
20504;DHT22;10410;51.046;6.980;2022-12-10T15:53:48;1.20;99.90
20504;DHT22;10410;51.046;6.980;2022-12-10T16:00:48;1.20;99.90
20504;DHT22;10410;51.046;6.980;2022-12-10T16:07:51;1.30;99.90
20504;DHT22;10410;51.046;6.980;2022-12-10T16:14:54;1.30;99.90
20504;DHT22;10410;51.046;6.980;2022-12-10T16:21:59;1.30;99.90
20504;DHT22;10410;51.046;6.980;2022-12-10T16:29:00;1.30;99.90
20504;DHT22;10410;51.046;6.980;2022-12-10T16:36:00;1.30;99.90
20504;DHT22;10410;51.046;6.980;2022-12-10T16:43:02;1.30;99.90
20504;DHT22;10410;51.046;6.980;2022-12-10T16:50:02;1.30;99.90
20504;DHT22;10410;51.046;6.980;2022-12-10T16:57:09;1.40;99.90
20504;DHT22;10410;51.046;6.980;2022-12-10T17:04:10;1.40;99.90
20504;DHT22;10410;51.046;6.980;2022-12-10T17:11:21;1.40;99.90
20504;DHT22;10410;51.046;6.980;2022-12-10T17:18:41;1.40;99.90
20504;DHT22;10410;51.046;6.980;2022-12-10T17:25:42;1.40;99.90
20504;DHT22;10410;51.046;6.980;2022-12-10T17:32:43;1.50;99.90
20504;DHT22;10410;51.046;6.980;2022-12-10T17:39:45;1.50;99.90
20504;DHT22;10410;51.046;6.980;2022-12-10T17:46:45;1.50;99.90
20504;DHT22;10410;51.046;6.980;2022-12-10T17:53:46;1.50;99.90
20504;DHT22;10410;51.046;6.980;2022-12-10T18:00:47;1.40;99.90
20504;DHT22;10410;51.046;6.980;2022-12-10T18:07:48;1.30;99.90
20504;DHT22;10410;51.046;6.980;2022-12-10T18:14:48;1.30;99.90
20504;DHT22;10410;51.046;6.980;2022-12-10T18:21:49;1.30;99.90
20504;DHT22;10410;51.046;6.980;2022-12-10T18:28:57;1.20;99.90
20504;DHT22;10410;51.046;6.980;2022-12-10T18:35:57;1.20;99.90
20504;DHT22;10410;51.046;6.980;2022-12-10T18:42:58;1.20;99.90
20504;DHT22;10410;51.046;6.980;2022-12-10T18:49:58;1.20;99.90
20504;DHT22;10410;51.046;6.980;2022-12-10T18:56:58;1.20;99.90
20504;DHT22;10410;51.046;6.980;2022-12-10T19:04:18;1.20;99.90
20504;DHT22;10410;51.046;6.980;2022-12-10T19:11:20;1.20;99.90
20504;DHT22;10410;51.046;6.980;2022-12-10T19:18:21;1.20;99.90
20504;DHT22;10410;51.046;6.980;2022-12-10T19:25:22;1.20;99.90
20504;DHT22;10410;51.046;6.980;2022-12-10T19:32:22;1.10;99.90
20504;DHT22;10410;51.046;6.980;2022-12-10T19:39:23;1.00;99.90
20504;DHT22;10410;51.046;6.980;2022-12-10T19:46:25;1.00;99.90
20504;DHT22;10410;51.046;6.980;2022-12-10T19:53:26;1.00;99.90
20504;DHT22;10410;51.046;6.980;2022-12-10T20:00:31;1.00;99.90
20504;DHT22;10410;51.046;6.980;2022-12-10T20:07:32;0.90;99.90
20504;DHT22;10410;51.046;6.980;2022-12-10T20:14:33;0.90;99.90
20504;DHT22;10410;51.046;6.980;2022-12-10T20:21:34;1.00;99.90
20504;DHT22;10410;51.046;6.980;2022-12-10T20:28:34;0.90;99.90
20504;DHT22;10410;51.046;6.980;2022-12-10T20:35:35;0.90;99.90
20504;DHT22;10410;51.046;6.980;2022-12-10T20:42:41;0.80;99.90
20504;DHT22;10410;51.046;6.980;2022-12-10T20:49:41;0.80;99.90
20504;DHT22;10410;51.046;6.980;2022-12-10T20:56:42;0.90;99.90
20504;DHT22;10410;51.046;6.980;2022-12-10T21:03:42;0.90;99.90
20504;DHT22;10410;51.046;6.980;2022-12-10T21:10:43;0.90;99.90
20504;DHT22;10410;51.046;6.980;2022-12-10T21:17:53;0.90;99.90
20504;DHT22;10410;51.046;6.980;2022-12-10T21:24:54;0.80;99.90
20504;DHT22;10410;51.046;6.980;2022-12-10T21:31:54;0.80;99.90
20504;DHT22;10410;51.046;6.980;2022-12-10T21:38:54;0.80;99.90
20504;DHT22;10410;51.046;6.980;2022-12-10T21:45:55;0.80;99.90
20504;DHT22;10410;51.046;6.980;2022-12-10T21:52:56;0.80;99.90
20504;DHT22;10410;51.046;6.980;2022-12-10T21:59:57;0.70;99.90
20504;DHT22;10410;51.046;6.980;2022-12-10T22:06:57;0.70;99.90
20504;DHT22;10410;51.046;6.980;2022-12-10T22:13:57;0.70;99.90
20504;DHT22;10410;51.046;6.980;2022-12-10T22:20:59;0.70;99.90
20504;DHT22;10410;51.046;6.980;2022-12-10T22:28:00;0.70;99.90
20504;DHT22;10410;51.046;6.980;2022-12-10T22:35:00;0.80;99.90
20504;DHT22;10410;51.046;6.980;2022-12-10T22:42:00;0.70;99.90
20504;DHT22;10410;51.046;6.980;2022-12-10T22:49:01;0.70;99.90
20504;DHT22;10410;51.046;6.980;2022-12-10T22:56:04;0.70;99.90
20504;DHT22;10410;51.046;6.980;2022-12-10T23:03:05;0.70;99.90
20504;DHT22;10410;51.046;6.980;2022-12-10T23:10:06;0.80;99.90
20504;DHT22;10410;51.046;6.980;2022-12-10T23:17:07;0.80;99.90
20504;DHT22;10410;51.046;6.980;2022-12-10T23:24:08;0.80;99.90
20504;DHT22;10410;51.046;6.980;2022-12-10T23:31:08;0.80;99.90
20504;DHT22;10410;51.046;6.980;2022-12-10T23:38:10;0.70;99.90
20504;DHT22;10410;51.046;6.980;2022-12-10T23:45:13;0.50;99.90
20504;DHT22;10410;51.046;6.980;2022-12-10T23:52:14;0.50;99.90
20504;DHT22;10410;51.046;6.980;2022-12-10T23:59:15;0.40;99.90
